sensor_id;sensor_type;location;lat;lon;timestamp;P1;durP1;ratioP1;P2;durP2;ratioP2
1078;SDS011;528;47.872;11.478;2022-09-09T00:01:28;3.03;;;2.27;;
1078;SDS011;528;47.872;11.478;2022-09-09T00:23:56;2.20;;;1.90;;
1078;SDS011;528;47.872;11.478;2022-09-09T00:27:19;2.20;;;2.00;;
1078;SDS011;528;47.872;11.478;2022-09-09T00:36:01;2.60;;;2.40;;
1078;SDS011;528;47.872;11.478;2022-09-09T03:17:30;1.60;;;1.50;;
1078;SDS011;528;47.872;11.478;2022-09-09T03:19:57;2.03;;;1.90;;
1078;SDS011;528;47.872;11.478;2022-09-09T03:22:27;1.70;;;1.60;;
1078;SDS011;528;47.872;11.478;2022-09-09T03:24:59;1.53;;;1.43;;
1078;SDS011;528;47.872;11.478;2022-09-09T03:27:30;1.63;;;1.53;;
1078;SDS011;528;47.872;11.478;2022-09-09T03:29:58;2.20;;;1.70;;
1078;SDS011;528;47.872;11.478;2022-09-09T03:32:30;6.23;;;1.60;;
1078;SDS011;528;47.872;11.478;2022-09-09T03:34:58;2.00;;;1.70;;
1078;SDS011;528;47.872;11.478;2022-09-09T03:37:25;1.60;;;1.43;;
1078;SDS011;528;47.872;11.478;2022-09-09T03:39:52;1.70;;;1.50;;
1078;SDS011;528;47.872;11.478;2022-09-09T03:42:20;1.90;;;1.80;;
1078;SDS011;528;47.872;11.478;2022-09-09T03:44:48;1.90;;;1.80;;
1078;SDS011;528;47.872;11.478;2022-09-09T03:47:23;2.63;;;1.43;;
1078;SDS011;528;47.872;11.478;2022-09-09T03:49:54;1.87;;;1.50;;
1078;SDS011;528;47.872;11.478;2022-09-09T03:52:21;1.70;;;1.60;;
1078;SDS011;528;47.872;11.478;2022-09-09T03:54:51;1.70;;;1.60;;
1078;SDS011;528;47.872;11.478;2022-09-09T03:57:20;2.20;;;1.70;;
1078;SDS011;528;47.872;11.478;2022-09-09T03:59:47;1.47;;;1.37;;
1078;SDS011;528;47.872;11.478;2022-09-09T04:02:15;2.20;;;2.00;;
1078;SDS011;528;47.872;11.478;2022-09-09T04:04:43;2.13;;;1.60;;
1078;SDS011;528;47.872;11.478;2022-09-09T04:07:20;1.60;;;1.50;;
1078;SDS011;528;47.872;11.478;2022-09-09T04:09:49;1.90;;;1.70;;
1078;SDS011;528;47.872;11.478;2022-09-09T04:12:18;1.70;;;1.60;;
1078;SDS011;528;47.872;11.478;2022-09-09T04:14:46;1.80;;;1.70;;
1078;SDS011;528;47.872;11.478;2022-09-09T04:17:17;1.70;;;1.60;;
1078;SDS011;528;47.872;11.478;2022-09-09T04:19:46;1.80;;;1.70;;
1078;SDS011;528;47.872;11.478;2022-09-09T04:22:16;1.57;;;1.40;;
1078;SDS011;528;47.872;11.478;2022-09-09T04:24:45;2.20;;;1.60;;
1078;SDS011;528;47.872;11.478;2022-09-09T04:27:12;1.50;;;1.40;;
1078;SDS011;528;47.872;11.478;2022-09-09T04:29:40;1.43;;;1.40;;
1078;SDS011;528;47.872;11.478;2022-09-09T04:32:07;1.63;;;1.53;;
1078;SDS011;528;47.872;11.478;2022-09-09T04:34:34;1.80;;;1.67;;
1078;SDS011;528;47.872;11.478;2022-09-09T04:37:07;1.40;;;1.30;;
1078;SDS011;528;47.872;11.478;2022-09-09T04:39:36;2.60;;;1.40;;
1078;SDS011;528;47.872;11.478;2022-09-09T04:42:04;1.77;;;1.67;;
1078;SDS011;528;47.872;11.478;2022-09-09T04:44:32;2.20;;;1.57;;
1078;SDS011;528;47.872;11.478;2022-09-09T04:46:59;1.60;;;1.50;;
1078;SDS011;528;47.872;11.478;2022-09-09T04:49:26;3.90;;;1.80;;
1078;SDS011;528;47.872;11.478;2022-09-09T04:51:56;1.73;;;1.50;;
1078;SDS011;528;47.872;11.478;2022-09-09T04:54:23;1.80;;;1.70;;
1078;SDS011;528;47.872;11.478;2022-09-09T04:56:51;2.30;;;1.77;;
1078;SDS011;528;47.872;11.478;2022-09-09T04:59:20;1.73;;;1.60;;
1078;SDS011;528;47.872;11.478;2022-09-09T05:01:47;1.60;;;1.50;;
1078;SDS011;528;47.872;11.478;2022-09-09T05:04:15;2.83;;;1.60;;
1078;SDS011;528;47.872;11.478;2022-09-09T05:06:47;3.33;;;1.67;;
1078;SDS011;528;47.872;11.478;2022-09-09T05:09:21;2.40;;;2.00;;
1078;SDS011;528;47.872;11.478;2022-09-09T05:11:48;1.80;;;1.70;;
1078;SDS011;528;47.872;11.478;2022-09-09T05:14:20;2.20;;;1.80;;
1078;SDS011;528;47.872;11.478;2022-09-09T05:16:47;2.40;;;1.60;;
1078;SDS011;528;47.872;11.478;2022-09-09T05:19:15;1.60;;;1.40;;
1078;SDS011;528;47.872;11.478;2022-09-09T05:21:44;2.07;;;1.43;;
1078;SDS011;528;47.872;11.478;2022-09-09T05:24:11;1.63;;;1.53;;
1078;SDS011;528;47.872;11.478;2022-09-09T05:26:43;2.10;;;1.70;;
1078;SDS011;528;47.872;11.478;2022-09-09T05:29:10;1.90;;;1.70;;
1078;SDS011;528;47.872;11.478;2022-09-09T05:31:41;2.07;;;1.70;;
1078;SDS011;528;47.872;11.478;2022-09-09T05:34:10;2.03;;;1.73;;
1078;SDS011;528;47.872;11.478;2022-09-09T05:36:43;1.60;;;1.50;;
1078;SDS011;528;47.872;11.478;2022-09-09T05:39:12;1.67;;;1.57;;
1078;SDS011;528;47.872;11.478;2022-09-09T05:41:40;2.07;;;1.87;;
1078;SDS011;528;47.872;11.478;2022-09-09T05:44:07;3.20;;;1.80;;
1078;SDS011;528;47.872;11.478;2022-09-09T05:46:35;1.63;;;1.50;;
1078;SDS011;528;47.872;11.478;2022-09-09T05:49:04;2.47;;;1.87;;
1078;SDS011;528;47.872;11.478;2022-09-09T05:51:32;2.10;;;1.77;;
1078;SDS011;528;47.872;11.478;2022-09-09T05:54:03;2.57;;;2.17;;
1078;SDS011;528;47.872;11.478;2022-09-09T05:56:30;1.70;;;1.60;;
1078;SDS011;528;47.872;11.478;2022-09-09T05:58:58;1.57;;;1.47;;
1078;SDS011;528;47.872;11.478;2022-09-09T06:01:26;3.73;;;1.90;;
1078;SDS011;528;47.872;11.478;2022-09-09T06:03:55;2.90;;;1.50;;
1078;SDS011;528;47.872;11.478;2022-09-09T06:06:25;1.87;;;1.77;;
1078;SDS011;528;47.872;11.478;2022-09-09T06:08:55;2.50;;;2.27;;
1078;SDS011;528;47.872;11.478;2022-09-09T06:11:24;1.60;;;1.50;;
1078;SDS011;528;47.872;11.478;2022-09-09T06:13:56;1.80;;;1.70;;
1078;SDS011;528;47.872;11.478;2022-09-09T06:16:25;1.60;;;1.50;;
1078;SDS011;528;47.872;11.478;2022-09-09T06:18:57;1.70;;;1.60;;
1078;SDS011;528;47.872;11.478;2022-09-09T06:21:27;1.30;;;1.20;;
1078;SDS011;528;47.872;11.478;2022-09-09T06:24:01;2.00;;;1.33;;
1078;SDS011;528;47.872;11.478;2022-09-09T06:26:33;1.73;;;1.40;;
1078;SDS011;528;47.872;11.478;2022-09-09T06:29:01;1.70;;;1.60;;
1078;SDS011;528;47.872;11.478;2022-09-09T06:31:33;2.00;;;1.70;;
1078;SDS011;528;47.872;11.478;2022-09-09T06:34:03;2.20;;;1.60;;
1078;SDS011;528;47.872;11.478;2022-09-09T06:36:35;1.73;;;1.63;;
1078;SDS011;528;47.872;11.478;2022-09-09T06:39:12;1.60;;;1.50;;
1078;SDS011;528;47.872;11.478;2022-09-09T06:41:40;1.97;;;1.70;;
1078;SDS011;528;47.872;11.478;2022-09-09T06:44:08;1.30;;;1.20;;
1078;SDS011;528;47.872;11.478;2022-09-09T06:46:37;1.43;;;1.33;;
1078;SDS011;528;47.872;11.478;2022-09-09T06:49:07;1.20;;;1.10;;
1078;SDS011;528;47.872;11.478;2022-09-09T06:51:37;2.43;;;1.40;;
1078;SDS011;528;47.872;11.478;2022-09-09T06:54:09;1.33;;;1.23;;
1078;SDS011;528;47.872;11.478;2022-09-09T06:56:41;2.07;;;1.87;;
1078;SDS011;528;47.872;11.478;2022-09-09T06:59:11;1.50;;;1.40;;
1078;SDS011;528;47.872;11.478;2022-09-09T07:01:40;2.10;;;2.00;;
1078;SDS011;528;47.872;11.478;2022-09-09T07:04:09;2.50;;;1.73;;
1078;SDS011;528;47.872;11.478;2022-09-09T07:06:41;2.57;;;1.33;;
1078;SDS011;528;47.872;11.478;2022-09-09T07:09:10;2.80;;;1.47;;
1078;SDS011;528;47.872;11.478;2022-09-09T07:11:39;1.60;;;1.50;;
1078;SDS011;528;47.872;11.478;2022-09-09T07:14:08;2.47;;;1.70;;
1078;SDS011;528;47.872;11.478;2022-09-09T07:16:49;1.60;;;1.40;;
1078;SDS011;528;47.872;11.478;2022-09-09T07:19:17;1.87;;;1.50;;
1078;SDS011;528;47.872;11.478;2022-09-09T07:21:46;1.60;;;1.50;;
1078;SDS011;528;47.872;11.478;2022-09-09T07:24:14;1.93;;;1.70;;
1078;SDS011;528;47.872;11.478;2022-09-09T07:26:41;1.60;;;1.50;;
1078;SDS011;528;47.872;11.478;2022-09-09T07:29:09;1.83;;;1.70;;
1078;SDS011;528;47.872;11.478;2022-09-09T07:31:38;1.90;;;1.80;;
1078;SDS011;528;47.872;11.478;2022-09-09T07:34:06;2.13;;;1.93;;
1078;SDS011;528;47.872;11.478;2022-09-09T07:36:34;4.37;;;2.10;;
1078;SDS011;528;47.872;11.478;2022-09-09T07:39:05;2.07;;;1.80;;
1078;SDS011;528;47.872;11.478;2022-09-09T07:41:35;1.93;;;1.80;;
1078;SDS011;528;47.872;11.478;2022-09-09T07:44:05;1.80;;;1.70;;
1078;SDS011;528;47.872;11.478;2022-09-09T07:46:44;2.60;;;1.77;;
1078;SDS011;528;47.872;11.478;2022-09-09T07:49:30;2.00;;;1.83;;
1078;SDS011;528;47.872;11.478;2022-09-09T07:55:44;2.13;;;1.93;;
1078;SDS011;528;47.872;11.478;2022-09-09T07:58:25;2.10;;;1.87;;
1078;SDS011;528;47.872;11.478;2022-09-09T08:00:57;2.70;;;2.00;;
1078;SDS011;528;47.872;11.478;2022-09-09T08:06:21;4.07;;;1.87;;
1078;SDS011;528;47.872;11.478;2022-09-09T11:37:06;1.20;;;1.10;;
1078;SDS011;528;47.872;11.478;2022-09-09T11:39:57;1.10;;;1.10;;
1078;SDS011;528;47.872;11.478;2022-09-09T11:45:35;0.80;;;0.80;;
1078;SDS011;528;47.872;11.478;2022-09-09T11:48:58;1.00;;;1.00;;
1078;SDS011;528;47.872;11.478;2022-09-09T11:51:32;0.93;;;0.80;;
1078;SDS011;528;47.872;11.478;2022-09-09T12:00:46;1.60;;;0.90;;
1078;SDS011;528;47.872;11.478;2022-09-09T12:06:25;1.13;;;1.03;;
1078;SDS011;528;47.872;11.478;2022-09-09T12:09:22;2.50;;;1.07;;
1078;SDS011;528;47.872;11.478;2022-09-09T12:12:04;1.00;;;1.00;;
1078;SDS011;528;47.872;11.478;2022-09-09T12:14:36;0.97;;;0.87;;
1078;SDS011;528;47.872;11.478;2022-09-09T12:17:15;1.17;;;1.10;;
1078;SDS011;528;47.872;11.478;2022-09-09T12:19:48;0.83;;;0.83;;
1078;SDS011;528;47.872;11.478;2022-09-09T12:22:31;1.63;;;1.00;;
1078;SDS011;528;47.872;11.478;2022-09-09T12:25:09;0.70;;;0.70;;
1078;SDS011;528;47.872;11.478;2022-09-09T12:27:51;0.80;;;0.80;;
1078;SDS011;528;47.872;11.478;2022-09-09T12:30:34;0.80;;;0.80;;
1078;SDS011;528;47.872;11.478;2022-09-09T12:33:16;1.70;;;1.00;;
1078;SDS011;528;47.872;11.478;2022-09-09T12:35:57;1.33;;;1.07;;
1078;SDS011;528;47.872;11.478;2022-09-09T12:38:41;1.07;;;1.00;;
1078;SDS011;528;47.872;11.478;2022-09-09T12:42:00;1.83;;;1.07;;
1078;SDS011;528;47.872;11.478;2022-09-09T12:44:25;1.00;;;0.90;;
1078;SDS011;528;47.872;11.478;2022-09-09T12:47:09;1.37;;;0.87;;
1078;SDS011;528;47.872;11.478;2022-09-09T12:49:48;1.53;;;0.73;;
1078;SDS011;528;47.872;11.478;2022-09-09T12:53:00;0.90;;;0.90;;
1078;SDS011;528;47.872;11.478;2022-09-09T12:56:17;1.03;;;0.80;;
1078;SDS011;528;47.872;11.478;2022-09-09T20:55:15;5.00;;;4.60;;
1078;SDS011;528;47.872;11.478;2022-09-09T21:04:43;4.37;;;3.97;;
1078;SDS011;528;47.872;11.478;2022-09-09T21:13:50;1.10;;;1.10;;
1078;SDS011;528;47.872;11.478;2022-09-09T21:16:45;1.27;;;0.70;;
1078;SDS011;528;47.872;11.478;2022-09-09T21:19:24;1.53;;;0.60;;
1078;SDS011;528;47.872;11.478;2022-09-09T21:21:53;0.73;;;0.57;;
1078;SDS011;528;47.872;11.478;2022-09-09T21:24:23;0.80;;;0.50;;
1078;SDS011;528;47.872;11.478;2022-09-09T21:27:22;0.70;;;0.50;;
1078;SDS011;528;47.872;11.478;2022-09-09T21:29:52;2.20;;;0.50;;
1078;SDS011;528;47.872;11.478;2022-09-09T21:32:50;0.60;;;0.50;;
1078;SDS011;528;47.872;11.478;2022-09-09T21:36:02;1.93;;;0.50;;
1078;SDS011;528;47.872;11.478;2022-09-09T23:50:39;1.50;;;0.90;;
1078;SDS011;528;47.872;11.478;2022-09-09T23:53:31;1.90;;;0.70;;
1078;SDS011;528;47.872;11.478;2022-09-09T23:56:51;1.33;;;0.87;;
